Time;durP1;ratioP1;P1;durP2;ratioP2;P2;SDS_P1;SDS_P2;PMS_P1;PMS_P2;Temp;Humidity;BMP_temperature;BMP_pressure;BME280_temperature;BME280_humidity;BME280_pressure;Samples;Min_cycle;Max_cycle;Signal;HPM_P1;HPM_P2
2022/10/04 00:02:23;;;;;;;;;;;11.00;99.90;;;;;;4187758;28;19954;-59
2022/10/04 00:04:46;;;;;;;;;;;10.90;99.90;;;;;;4198151;28;20013;-59
2022/10/04 00:07:19;;;;;;;;;;;10.80;99.90;;;;;;4196047;28;20023;-59
2022/10/04 00:09:56;;;;;;;;;;;10.80;99.90;;;;;;4181686;28;20459;-60
2022/10/04 00:12:27;;;;;;;;;;;11.00;99.90;;;;;;4181973;28;20430;-59
2022/10/04 00:14:48;;;;;;;;;;;11.00;99.90;;;;;;4181837;28;19971;-59
2022/10/04 00:17:12;;;;;;;;;;;11.00;99.90;;;;;;4181983;28;20022;-59
2022/10/04 00:19:46;;;;;;;;;;;11.00;99.90;;;;;;4181682;28;19995;-59
2022/10/04 00:22:09;;;;;;;;;;;10.90;99.90;;;;;;4182330;28;19931;-59
2022/10/04 00:24:30;;;;;;;;;;;11.00;99.90;;;;;;4198108;28;19935;-59
2022/10/04 00:26:50;;;;;;;;;;;11.00;99.90;;;;;;4197842;28;19948;-59
2022/10/04 00:29:26;;;;;;;;;;;10.90;99.90;;;;;;4197887;28;19935;-59
2022/10/04 00:32:05;;;;;;;;;;;10.90;99.90;;;;;;4181689;28;19984;-59
2022/10/04 00:34:28;;;;;;;;;;;10.60;99.90;;;;;;4181495;28;20316;-59
2022/10/04 00:36:51;;;;;;;;;;;10.60;99.90;;;;;;4181383;28;20011;-59
2022/10/04 00:39:25;;;;;;;;;;;10.70;99.90;;;;;;4181663;28;20472;-59
2022/10/04 00:41:45;;;;;;;;;;;10.60;99.90;;;;;;4181342;28;20303;-59
2022/10/04 00:44:09;;;;;;;;;;;10.60;99.90;;;;;;4181493;28;19936;-59
2022/10/04 00:46:30;;;;;;;;;;;10.40;99.90;;;;;;4180854;28;19967;-59
2022/10/04 00:48:53;;;;;;;;;;;10.30;99.90;;;;;;4181287;28;20016;-59
2022/10/04 00:51:16;;;;;;;;;;;10.40;99.90;;;;;;4181410;28;19955;-59
2022/10/04 00:53:56;;;;;;;;;;;10.50;99.90;;;;;;4181319;28;20023;-59
2022/10/04 00:56:31;;;;;;;;;;;10.50;99.90;;;;;;4181269;28;19947;-59
2022/10/04 00:58:56;;;;;;;;;;;10.50;99.90;;;;;;4188559;28;20080;-59
2022/10/04 01:01:22;;;;;;;;;;;10.60;99.90;;;;;;4197637;28;20402;-59
2022/10/04 01:03:43;;;;;;;;;;;10.70;99.90;;;;;;4197536;28;19932;-59
2022/10/04 01:06:05;;;;;;;;;;;10.70;99.90;;;;;;4197552;28;19978;-59
2022/10/04 01:08:35;;;;;;;;;;;10.70;99.90;;;;;;4184484;28;19978;-59
2022/10/04 01:11:05;;;;;;;;;;;10.70;99.90;;;;;;4181054;28;19935;-59
2022/10/04 01:13:28;;;;;;;;;;;10.60;99.90;;;;;;4181001;28;20323;-59
2022/10/04 01:16:00;;;;;;;;;;;10.60;99.90;;;;;;4180755;28;19936;-59
2022/10/04 01:18:20;;;;;;;;;;;10.50;99.90;;;;;;4181792;28;20438;-59
2022/10/04 01:20:47;;;;;;;;;;;10.30;99.90;;;;;;4197122;28;19970;-59
2022/10/04 01:23:08;;;;;;;;;;;10.20;99.90;;;;;;4197136;28;19989;-59
2022/10/04 01:25:42;;;;;;;;;;;10.10;99.90;;;;;;4197522;28;19935;-59
2022/10/04 01:28:03;;;;;;;;;;;10.00;99.90;;;;;;4180688;28;19931;-59
2022/10/04 01:30:23;;;;;;;;;;;10.00;99.90;;;;;;4180378;28;19948;-59
2022/10/04 01:32:43;;;;;;;;;;;9.90;99.90;;;;;;4180011;28;20339;-59
2022/10/04 01:35:09;;;;;;;;;;;10.00;99.90;;;;;;4180810;28;20008;-59
2022/10/04 01:37:29;;;;;;;;;;;10.00;99.90;;;;;;4180606;28;20387;-59
2022/10/04 01:39:49;;;;;;;;;;;9.90;99.90;;;;;;4180725;28;19935;-59
2022/10/04 01:42:13;;;;;;;;;;;10.00;99.90;;;;;;4180402;28;19979;-59
2022/10/04 01:44:39;;;;;;;;;;;10.00;99.90;;;;;;4180187;28;19932;-60
2022/10/04 01:47:03;;;;;;;;;;;9.90;99.90;;;;;;4180150;28;19975;-59
2022/10/04 01:49:26;;;;;;;;;;;10.00;99.90;;;;;;4180103;28;19932;-59
2022/10/04 01:52:03;;;;;;;;;;;9.90;99.90;;;;;;4180251;28;19978;-59
2022/10/04 01:54:32;;;;;;;;;;;9.80;99.90;;;;;;4182608;28;20288;-59
2022/10/04 01:56:58;;;;;;;;;;;9.70;99.90;;;;;;4196693;28;19935;-59
2022/10/04 01:59:39;;;;;;;;;;;9.60;99.90;;;;;;4196465;28;19998;-59
2022/10/04 02:02:09;;;;;;;;;;;9.60;99.90;;;;;;4196417;28;20410;-60
2022/10/04 02:04:32;;;;;;;;;;;9.50;99.90;;;;;;4196293;28;20360;-60
2022/10/04 02:06:54;;;;;;;;;;;9.50;99.90;;;;;;4196327;28;19970;-60
2022/10/04 02:09:17;;;;;;;;;;;9.50;99.90;;;;;;4179959;28;19935;-59
2022/10/04 02:11:40;;;;;;;;;;;9.60;99.90;;;;;;4180180;28;20021;-60
2022/10/04 02:14:00;;;;;;;;;;;9.60;99.90;;;;;;4179861;28;20360;-60
2022/10/04 02:16:21;;;;;;;;;;;9.60;99.90;;;;;;4195059;28;20421;-59
2022/10/04 02:18:43;;;;;;;;;;;9.50;99.90;;;;;;4196427;28;19996;-60
2022/10/04 02:21:04;;;;;;;;;;;9.40;99.90;;;;;;4196086;28;19931;-60
2022/10/04 02:23:25;;;;;;;;;;;9.60;99.90;;;;;;4196342;28;19939;-60
2022/10/04 02:25:46;;;;;;;;;;;9.60;99.90;;;;;;4196237;28;19937;-60
2022/10/04 02:28:12;;;;;;;;;;;9.50;99.90;;;;;;4196752;28;19982;-60
2022/10/04 02:30:37;;;;;;;;;;;9.50;99.90;;;;;;4196005;28;20379;-60
2022/10/04 02:32:58;;;;;;;;;;;9.70;99.90;;;;;;4195883;28;20299;-59
2022/10/04 02:35:19;;;;;;;;;;;9.70;99.90;;;;;;4196049;28;19955;-59
2022/10/04 02:37:39;;;;;;;;;;;9.70;99.90;;;;;;4196631;28;19962;-59
2022/10/04 02:40:20;;;;;;;;;;;9.80;99.90;;;;;;4196092;28;19951;-59
2022/10/04 02:42:47;;;;;;;;;;;9.80;99.90;;;;;;4196231;28;20279;-60
2022/10/04 02:45:32;;;;;;;;;;;9.70;99.90;;;;;;4195689;28;19977;-60
2022/10/04 02:48:06;;;;;;;;;;;9.50;99.90;;;;;;4196114;28;20403;-60
2022/10/04 02:50:29;;;;;;;;;;;9.60;99.90;;;;;;4195950;28;19975;-59
2022/10/04 02:52:53;;;;;;;;;;;9.50;99.90;;;;;;4196288;28;20322;-59
2022/10/04 02:55:19;;;;;;;;;;;9.20;99.90;;;;;;4196259;28;20272;-59
2022/10/04 02:57:40;;;;;;;;;;;9.10;99.90;;;;;;4195893;28;20409;-60
2022/10/04 03:00:17;;;;;;;;;;;9.10;99.90;;;;;;4195602;28;20386;-60
2022/10/04 03:02:38;;;;;;;;;;;9.00;99.90;;;;;;4196007;28;19931;-60
2022/10/04 03:05:07;;;;;;;;;;;9.00;99.90;;;;;;4195827;28;19986;-60
2022/10/04 03:07:29;;;;;;;;;;;8.90;99.90;;;;;;4191126;28;19967;-60
2022/10/04 03:09:50;;;;;;;;;;;8.80;99.90;;;;;;4178985;28;19935;-59
2022/10/04 03:12:11;;;;;;;;;;;8.90;99.90;;;;;;4190964;28;19932;-59
2022/10/04 03:14:32;;;;;;;;;;;8.80;99.90;;;;;;4195790;28;20020;-59
2022/10/04 03:16:53;;;;;;;;;;;8.70;99.90;;;;;;4195740;28;19930;-60
2022/10/04 03:19:15;;;;;;;;;;;8.60;99.90;;;;;;4195693;28;19985;-60
2022/10/04 03:21:36;;;;;;;;;;;8.60;99.90;;;;;;4195989;28;19935;-60
2022/10/04 03:23:59;;;;;;;;;;;8.60;99.90;;;;;;4195980;28;20327;-60
2022/10/04 03:26:32;;;;;;;;;;;8.70;99.90;;;;;;4195580;28;19936;-60
2022/10/04 03:28:52;;;;;;;;;;;8.70;99.90;;;;;;4195774;28;19930;-59
2022/10/04 03:31:13;;;;;;;;;;;8.80;99.90;;;;;;4195486;28;19932;-60
2022/10/04 03:33:33;;;;;;;;;;;8.80;99.90;;;;;;4195300;28;19931;-60
2022/10/04 03:35:55;;;;;;;;;;;8.90;99.90;;;;;;4195694;28;20008;-59
2022/10/04 03:38:16;;;;;;;;;;;8.90;99.90;;;;;;4195909;28;20399;-60
2022/10/04 03:40:40;;;;;;;;;;;8.80;99.90;;;;;;4195555;28;20033;-59
2022/10/04 03:43:02;;;;;;;;;;;8.80;99.90;;;;;;4195646;28;20409;-60
2022/10/04 03:45:22;;;;;;;;;;;8.90;99.90;;;;;;4195894;28;19930;-60
2022/10/04 03:47:44;;;;;;;;;;;8.90;99.90;;;;;;4195314;28;19990;-60
2022/10/04 03:50:20;;;;;;;;;;;8.90;99.90;;;;;;4195340;28;19947;-60
2022/10/04 03:52:44;;;;;;;;;;;8.80;99.90;;;;;;4195942;28;19978;-59
2022/10/04 03:55:06;;;;;;;;;;;8.80;99.90;;;;;;4195998;28;19946;-60
2022/10/04 03:57:27;;;;;;;;;;;8.90;99.90;;;;;;4191567;28;19930;-60
2022/10/04 03:59:48;;;;;;;;;;;9.00;99.90;;;;;;4198511;28;20041;-60
2022/10/04 04:02:08;;;;;;;;;;;9.00;99.90;;;;;;4198694;28;19979;-60
2022/10/04 04:04:30;;;;;;;;;;;8.80;99.90;;;;;;4198464;28;20016;-60
2022/10/04 04:06:50;;;;;;;;;;;8.70;99.90;;;;;;4198750;28;20025;-59
2022/10/04 04:09:17;;;;;;;;;;;8.60;99.90;;;;;;4182036;28;19982;-59
2022/10/04 04:11:38;;;;;;;;;;;8.50;99.90;;;;;;4181622;28;20020;-60
2022/10/04 04:14:12;;;;;;;;;;;8.40;99.90;;;;;;4182001;28;19951;-60
2022/10/04 04:16:35;;;;;;;;;;;8.50;99.90;;;;;;4198155;28;19931;-60
2022/10/04 04:18:58;;;;;;;;;;;8.60;99.90;;;;;;4198184;28;19931;-60
2022/10/04 04:21:22;;;;;;;;;;;8.60;99.90;;;;;;4198266;28;19931;-60
2022/10/04 04:23:47;;;;;;;;;;;8.70;99.90;;;;;;4198375;28;19931;-59
2022/10/04 04:26:11;;;;;;;;;;;8.80;99.90;;;;;;4197923;28;19978;-61
2022/10/04 04:28:34;;;;;;;;;;;8.80;99.90;;;;;;4193904;28;19932;-60
2022/10/04 04:31:04;;;;;;;;;;;8.80;99.90;;;;;;4197766;28;20283;-60
2022/10/04 04:33:35;;;;;;;;;;;8.80;99.90;;;;;;4198140;28;20017;-60
2022/10/04 04:36:01;;;;;;;;;;;8.80;99.90;;;;;;4198174;28;19985;-60
2022/10/04 04:38:23;;;;;;;;;;;8.80;99.90;;;;;;4192048;28;20356;-60
2022/10/04 04:40:44;;;;;;;;;;;8.80;99.90;;;;;;4185402;28;19935;-60
2022/10/04 04:43:05;;;;;;;;;;;8.80;99.90;;;;;;4197909;28;19985;-61
2022/10/04 04:45:28;;;;;;;;;;;8.80;99.90;;;;;;4197803;28;19931;-60
2022/10/04 04:47:50;;;;;;;;;;;8.80;99.90;;;;;;4197615;28;20299;-60
2022/10/04 04:50:18;;;;;;;;;;;8.70;99.90;;;;;;4197384;28;19975;-60
2022/10/04 04:52:40;;;;;;;;;;;8.70;99.90;;;;;;4197862;28;19978;-60
2022/10/04 04:55:00;;;;;;;;;;;8.60;99.90;;;;;;4197753;28;19978;-60
2022/10/04 04:57:21;;;;;;;;;;;8.70;99.90;;;;;;4197778;28;20020;-60
2022/10/04 04:59:46;;;;;;;;;;;8.60;99.90;;;;;;4197528;28;19978;-60
2022/10/04 05:02:25;;;;;;;;;;;8.60;99.90;;;;;;4197540;28;20491;-60
2022/10/04 05:04:48;;;;;;;;;;;8.60;99.90;;;;;;4210165;28;20029;-60
2022/10/04 05:07:15;;;;;;;;;;;8.50;99.90;;;;;;4210844;28;19934;-60
2022/10/04 05:09:37;;;;;;;;;;;8.50;99.90;;;;;;4197348;28;19975;-59
2022/10/04 05:12:02;;;;;;;;;;;8.40;99.90;;;;;;4196979;28;20012;-59
2022/10/04 05:14:23;;;;;;;;;;;8.40;99.90;;;;;;4197195;28;19954;-59
2022/10/04 05:16:51;;;;;;;;;;;8.60;99.90;;;;;;4196807;28;20042;-56
2022/10/04 05:19:16;;;;;;;;;;;8.50;99.90;;;;;;4197516;28;20012;-57
2022/10/04 05:21:38;;;;;;;;;;;8.30;99.90;;;;;;4196051;28;19970;-57
2022/10/04 05:24:08;;;;;;;;;;;8.10;99.90;;;;;;4196160;28;20295;-57
2022/10/04 05:26:29;;;;;;;;;;;7.90;99.90;;;;;;4196342;28;19934;-57
2022/10/04 05:28:50;;;;;;;;;;;7.80;99.90;;;;;;4196936;28;19935;-56
2022/10/04 05:31:16;;;;;;;;;;;7.90;99.90;;;;;;4196913;28;19935;-57
2022/10/04 05:33:51;;;;;;;;;;;8.00;99.90;;;;;;4197245;28;19942;-56
2022/10/04 05:36:12;;;;;;;;;;;8.00;99.90;;;;;;4196966;28;19931;-57
2022/10/04 05:38:36;;;;;;;;;;;8.00;99.90;;;;;;4197303;28;19935;-56
2022/10/04 05:41:05;;;;;;;;;;;8.10;99.90;;;;;;4196886;28;19931;-58
2022/10/04 05:43:28;;;;;;;;;;;8.00;99.90;;;;;;4196701;28;19978;-56
2022/10/04 05:46:06;;;;;;;;;;;8.00;99.90;;;;;;4197015;28;20033;-57
2022/10/04 05:48:26;;;;;;;;;;;8.10;99.90;;;;;;4196900;28;19932;-57
2022/10/04 05:50:47;;;;;;;;;;;8.10;99.90;;;;;;4196255;28;20318;-56
2022/10/04 05:53:23;;;;;;;;;;;8.10;99.90;;;;;;4196819;28;19931;-57
2022/10/04 05:55:55;;;;;;;;;;;8.10;99.90;;;;;;4196604;28;20346;-56
2022/10/04 05:58:31;;;;;;;;;;;8.20;99.90;;;;;;4196647;28;20410;-57
2022/10/04 06:00:54;;;;;;;;;;;8.30;99.90;;;;;;4196303;28;19951;-56
2022/10/04 06:03:33;;;;;;;;;;;8.40;99.90;;;;;;4196579;28;20444;-56
2022/10/04 06:05:55;;;;;;;;;;;8.50;99.90;;;;;;4196518;28;20395;-57
2022/10/04 06:08:22;;;;;;;;;;;8.60;99.90;;;;;;4196421;28;20016;-56
2022/10/04 06:11:01;;;;;;;;;;;8.60;99.90;;;;;;4196114;28;19954;-56
2022/10/04 06:13:30;;;;;;;;;;;8.70;99.90;;;;;;4196700;28;20032;-57
2022/10/04 06:15:51;;;;;;;;;;;8.80;99.90;;;;;;4196508;28;19934;-56
2022/10/04 06:18:11;;;;;;;;;;;8.80;99.90;;;;;;4196459;28;19974;-55
2022/10/04 06:20:56;;;;;;;;;;;8.70;99.90;;;;;;4196513;28;19982;-56
2022/10/04 06:23:17;;;;;;;;;;;8.70;99.90;;;;;;4196387;28;19930;-56
2022/10/04 06:25:48;;;;;;;;;;;8.90;99.90;;;;;;4196201;28;19936;-57
2022/10/04 06:28:13;;;;;;;;;;;8.90;99.90;;;;;;4195952;28;19959;-56
2022/10/04 06:30:52;;;;;;;;;;;9.00;99.90;;;;;;4196272;28;19930;-57
2022/10/04 06:33:28;;;;;;;;;;;9.20;99.90;;;;;;4196029;28;19931;-57
2022/10/04 06:36:18;;;;;;;;;;;9.20;99.90;;;;;;4196000;28;20558;-56
2022/10/04 06:38:50;;;;;;;;;;;9.20;99.90;;;;;;4179523;28;19960;-57
2022/10/04 06:41:10;;;;;;;;;;;9.20;99.90;;;;;;4195874;28;20147;-57
2022/10/04 06:43:36;;;;;;;;;;;9.10;99.90;;;;;;4196149;28;20291;-56
2022/10/04 06:46:04;;;;;;;;;;;9.20;99.90;;;;;;4196425;28;20016;-57
2022/10/04 06:48:30;;;;;;;;;;;9.10;99.90;;;;;;4195728;28;19935;-57
2022/10/04 06:50:50;;;;;;;;;;;9.20;99.90;;;;;;4195974;28;19978;-56
2022/10/04 06:53:41;;;;;;;;;;;9.20;99.90;;;;;;4195941;28;19932;-57
2022/10/04 06:56:04;;;;;;;;;;;9.30;99.90;;;;;;4195947;28;20029;-57
2022/10/04 06:58:37;;;;;;;;;;;9.30;99.90;;;;;;4196076;28;20031;-56
2022/10/04 07:01:00;;;;;;;;;;;9.40;99.90;;;;;;4195664;28;19974;-55
2022/10/04 07:03:25;;;;;;;;;;;9.60;99.90;;;;;;4194916;28;19939;-56
2022/10/04 07:05:49;;;;;;;;;;;9.80;99.90;;;;;;4195637;28;20366;-56
2022/10/04 07:08:31;;;;;;;;;;;9.70;99.90;;;;;;4195758;28;19935;-56
2022/10/04 07:10:54;;;;;;;;;;;9.80;99.90;;;;;;4195702;28;19935;-57
2022/10/04 07:13:17;;;;;;;;;;;9.90;99.90;;;;;;4195848;28;19990;-56
2022/10/04 07:15:44;;;;;;;;;;;10.10;99.90;;;;;;4196089;28;20326;-56
2022/10/04 07:18:06;;;;;;;;;;;10.20;99.90;;;;;;4196066;28;19978;-57
2022/10/04 07:20:32;;;;;;;;;;;10.30;99.90;;;;;;4195723;28;20301;-56
2022/10/04 07:23:05;;;;;;;;;;;10.40;99.90;;;;;;4195848;28;20394;-56
2022/10/04 07:25:30;;;;;;;;;;;10.60;99.90;;;;;;4195948;28;19936;-56
2022/10/04 07:30:46;;;;;;;;;;;10.90;99.90;;;;;;4197606;28;19967;-56
2022/10/04 07:33:07;;;;;;;;;;;11.10;99.90;;;;;;4198483;28;20364;-56
2022/10/04 07:35:33;;;;;;;;;;;11.40;99.90;;;;;;4198774;28;20405;-56
2022/10/04 07:37:57;;;;;;;;;;;11.60;99.90;;;;;;4198284;28;19974;-56
2022/10/04 07:40:21;;;;;;;;;;;11.80;99.90;;;;;;4198326;28;20083;-56
2022/10/04 07:42:52;;;;;;;;;;;11.80;99.90;;;;;;4198327;28;19995;-57
2022/10/04 07:45:16;;;;;;;;;;;12.00;99.90;;;;;;4198572;28;19934;-57
2022/10/04 07:47:36;;;;;;;;;;;12.50;99.90;;;;;;4198615;28;19935;-56
2022/10/04 07:49:57;;;;;;;;;;;12.70;99.90;;;;;;4198100;28;19931;-56
2022/10/04 07:52:36;;;;;;;;;;;12.80;99.90;;;;;;4198231;28;20410;-57
2022/10/04 07:55:14;;;;;;;;;;;12.80;99.90;;;;;;4198029;28;19947;-57
2022/10/04 07:57:43;;;;;;;;;;;12.90;99.90;;;;;;4198417;28;20284;-56
2022/10/04 08:00:10;;;;;;;;;;;12.90;99.90;;;;;;4197977;28;19978;-57
2022/10/04 08:02:43;;;;;;;;;;;13.00;99.90;;;;;;4198351;28;19947;-58
2022/10/04 08:05:14;;;;;;;;;;;13.00;99.90;;;;;;4198367;28;20360;-57
2022/10/04 08:07:34;;;;;;;;;;;13.10;99.90;;;;;;4198062;28;19931;-57
2022/10/04 08:10:14;;;;;;;;;;;13.20;99.90;;;;;;4198395;28;20030;-57
2022/10/04 08:12:35;;;;;;;;;;;13.30;99.90;;;;;;4197762;28;20412;-57
2022/10/04 08:15:02;;;;;;;;;;;13.50;99.90;;;;;;4197696;28;20401;-57
2022/10/04 08:17:28;;;;;;;;;;;13.60;99.90;;;;;;4197792;28;20364;-58
2022/10/04 08:19:49;;;;;;;;;;;13.80;99.90;;;;;;4198013;28;19931;-57
2022/10/04 08:22:15;;;;;;;;;;;13.90;99.90;;;;;;4197681;28;20493;-56
2022/10/04 08:24:58;;;;;;;;;;;14.20;99.90;;;;;;4197871;28;19967;-57
2022/10/04 08:27:37;;;;;;;;;;;14.40;99.90;;;;;;4190273;28;20434;-57
2022/10/04 08:29:57;;;;;;;;;;;14.60;99.90;;;;;;4197326;28;19936;-57
2022/10/04 08:32:36;;;;;;;;;;;14.80;99.90;;;;;;4197249;28;19931;-57
2022/10/04 08:35:00;;;;;;;;;;;14.90;99.90;;;;;;4197145;28;19931;-57
2022/10/04 08:37:31;;;;;;;;;;;15.20;99.90;;;;;;4197469;28;19939;-58
2022/10/04 08:39:52;;;;;;;;;;;15.30;99.90;;;;;;4197422;28;20460;-57
2022/10/04 08:42:32;;;;;;;;;;;15.50;99.90;;;;;;4196305;28;19952;-57
2022/10/04 08:44:52;;;;;;;;;;;15.50;99.90;;;;;;4197426;28;19931;-57
2022/10/04 08:47:13;;;;;;;;;;;15.60;99.90;;;;;;4197394;28;19955;-57
2022/10/04 08:49:36;;;;;;;;;;;15.60;99.90;;;;;;4197318;28;20402;-57
2022/10/04 08:52:03;;;;;;;;;;;15.80;99.90;;;;;;4197298;28;19962;-58
2022/10/04 08:54:31;;;;;;;;;;;16.00;99.90;;;;;;4197239;28;20278;-57
2022/10/04 08:57:04;;;;;;;;;;;16.10;99.90;;;;;;4197275;28;19970;-57
2022/10/04 08:59:37;;;;;;;;;;;16.20;99.90;;;;;;4196855;28;19935;-57
2022/10/04 09:02:15;;;;;;;;;;;16.40;99.90;;;;;;4197085;28;19932;-57
2022/10/04 09:04:40;;;;;;;;;;;16.60;99.90;;;;;;4196964;28;19959;-57
2022/10/04 09:07:01;;;;;;;;;;;17.00;99.90;;;;;;4196929;28;19957;-57
2022/10/04 09:09:33;;;;;;;;;;;17.00;99.90;;;;;;4197027;28;19989;-57
2022/10/04 09:12:03;;;;;;;;;;;17.20;99.90;;;;;;4197064;28;19935;-57
2022/10/04 09:14:26;;;;;;;;;;;17.20;99.90;;;;;;4196682;28;19977;-57
2022/10/04 09:16:56;;;;;;;;;;;17.40;99.90;;;;;;4196935;28;19994;-57
2022/10/04 09:19:21;;;;;;;;;;;17.60;99.90;;;;;;4197267;28;19975;-57
2022/10/04 09:21:42;;;;;;;;;;;17.70;99.90;;;;;;4190746;28;20475;-57
2022/10/04 09:24:17;;;;;;;;;;;17.70;99.90;;;;;;4192874;28;20012;-58
2022/10/04 09:26:48;;;;;;;;;;;18.00;99.90;;;;;;4191647;28;19939;-57
2022/10/04 09:29:24;;;;;;;;;;;18.20;99.90;;;;;;4191589;28;20022;-57
2022/10/04 09:32:03;;;;;;;;;;;18.40;99.90;;;;;;4195177;28;19998;-57
2022/10/04 09:34:26;;;;;;;;;;;18.70;99.90;;;;;;4195771;28;20350;-57
2022/10/04 09:37:04;;;;;;;;;;;18.70;99.90;;;;;;4197182;28;20029;-57
2022/10/04 09:39:44;;;;;;;;;;;19.00;99.90;;;;;;4196825;28;19932;-58
2022/10/04 09:42:04;;;;;;;;;;;19.30;99.90;;;;;;4196964;28;20449;-56
2022/10/04 09:44:28;;;;;;;;;;;19.50;99.90;;;;;;4196946;28;19936;-57
2022/10/04 09:46:58;;;;;;;;;;;19.90;99.90;;;;;;4180103;28;19932;-58
2022/10/04 09:49:36;;;;;;;;;;;20.10;99.90;;;;;;4180341;28;19965;-58
2022/10/04 09:52:04;;;;;;;;;;;20.10;99.90;;;;;;4180276;28;20355;-57
2022/10/04 09:54:55;;;;;;;;;;;20.30;99.90;;;;;;4197004;28;20009;-57
2022/10/04 09:57:38;;;;;;;;;;;20.40;99.90;;;;;;4191887;28;20303;-57
2022/10/04 10:00:08;;;;;;;;;;;20.90;99.90;;;;;;4196028;28;20280;-56
2022/10/04 10:02:41;;;;;;;;;;;21.20;99.90;;;;;;4192420;28;19935;-57
2022/10/04 10:05:04;;;;;;;;;;;21.30;99.90;;;;;;4194808;28;20006;-58
2022/10/04 10:07:43;;;;;;;;;;;21.40;99.90;;;;;;4193385;28;19934;-58
2022/10/04 10:16:02;;;;;;;;;;;22.30;99.90;;;;;;4195153;28;20029;-58
2022/10/04 10:18:40;;;;;;;;;;;22.10;99.90;;;;;;4194792;28;20683;-58
2022/10/04 10:21:04;;;;;;;;;;;22.00;99.90;;;;;;4192579;28;19935;-58
2022/10/04 10:23:39;;;;;;;;;;;22.20;99.90;;;;;;4203279;28;20453;-58
2022/10/04 10:26:22;;;;;;;;;;;22.10;99.90;;;;;;4194778;28;19931;-58
2022/10/04 10:28:56;;;;;;;;;;;22.30;99.90;;;;;;4193717;28;19958;-58
2022/10/04 10:31:23;;;;;;;;;;;22.50;99.90;;;;;;4202969;28;19998;-58
2022/10/04 10:34:04;;;;;;;;;;;22.70;99.90;;;;;;4192945;28;20496;-58
2022/10/04 10:36:30;;;;;;;;;;;23.10;99.90;;;;;;4179501;28;19982;-58
2022/10/04 10:38:50;;;;;;;;;;;23.10;99.90;;;;;;4192286;28;20005;-57
2022/10/04 10:41:22;;;;;;;;;;;23.50;99.90;;;;;;4195995;28;20407;-58
2022/10/04 10:44:06;;;;;;;;;;;23.50;99.80;;;;;;4195980;28;19932;-57
2022/10/04 10:46:48;;;;;;;;;;;23.10;99.90;;;;;;4192800;28;20009;-58
2022/10/04 10:49:08;;;;;;;;;;;23.50;99.90;;;;;;4186491;28;19931;-57
2022/10/04 10:51:33;;;;;;;;;;;23.50;99.90;;;;;;4195860;28;19943;-58
2022/10/04 10:53:57;;;;;;;;;;;23.70;99.90;;;;;;4195068;28;19935;-58
2022/10/04 10:56:38;;;;;;;;;;;23.70;99.90;;;;;;4182520;28;19967;-58
2022/10/04 10:59:01;;;;;;;;;;;23.20;99.90;;;;;;4180559;28;20382;-57
2022/10/04 11:01:24;;;;;;;;;;;22.80;99.20;;;;;;4193609;28;20011;-58
2022/10/04 11:04:03;;;;;;;;;;;23.20;99.90;;;;;;4195853;28;20443;-57
2022/10/04 11:06:38;;;;;;;;;;;23.00;98.90;;;;;;4194964;28;20432;-58
2022/10/04 11:09:17;;;;;;;;;;;23.10;99.90;;;;;;4191263;28;19939;-58
2022/10/04 11:11:56;;;;;;;;;;;22.80;99.90;;;;;;4192333;28;19950;-58
2022/10/04 11:14:27;;;;;;;;;;;22.90;99.90;;;;;;4184914;28;19931;-57
2022/10/04 11:17:08;;;;;;;;;;;23.00;99.90;;;;;;4193097;28;19932;-57
2022/10/04 11:19:37;;;;;;;;;;;23.40;99.90;;;;;;4189264;28;20019;-57
2022/10/04 11:22:05;;;;;;;;;;;23.10;99.90;;;;;;4192703;28;19935;-58
2022/10/04 11:24:29;;;;;;;;;;;23.40;99.90;;;;;;4182653;28;19947;-57
2022/10/04 11:27:13;;;;;;;;;;;23.10;99.90;;;;;;4195308;28;19932;-57
2022/10/04 11:29:54;;;;;;;;;;;23.30;99.90;;;;;;4179319;28;19987;-57
2022/10/04 11:32:17;;;;;;;;;;;23.10;99.90;;;;;;4183097;28;19935;-58
2022/10/04 11:34:38;;;;;;;;;;;23.50;99.90;;;;;;4179107;28;19932;-58
2022/10/04 11:37:02;;;;;;;;;;;23.50;99.90;;;;;;4183695;28;19955;-58
2022/10/04 11:39:46;;;;;;;;;;;23.40;99.90;;;;;;4186378;28;20434;-57
2022/10/04 11:42:19;;;;;;;;;;;23.40;99.90;;;;;;4178775;28;19974;-56
2022/10/04 11:44:54;;;;;;;;;;;23.10;99.90;;;;;;4180871;28;19931;-56
2022/10/04 11:47:23;;;;;;;;;;;23.50;99.90;;;;;;4195620;28;19932;-56
2022/10/04 11:50:07;;;;;;;;;;;23.50;99.90;;;;;;4195764;28;20426;-56
2022/10/04 11:52:42;;;;;;;;;;;24.00;99.90;;;;;;4195044;28;20020;-56
2022/10/04 11:55:19;;;;;;;;;;;23.50;99.90;;;;;;4195708;28;19931;-56
2022/10/04 11:58:02;;;;;;;;;;;23.80;99.90;;;;;;4195320;28;19986;-56
2022/10/04 12:00:23;;;;;;;;;;;23.90;99.90;;;;;;4194975;28;19978;-57
2022/10/04 12:02:49;;;;;;;;;;;23.60;98.50;;;;;;4195312;28;19935;-56
2022/10/04 12:05:28;;;;;;;;;;;23.80;99.90;;;;;;4195956;28;19981;-57
2022/10/04 12:07:53;;;;;;;;;;;23.60;99.70;;;;;;4195189;28;19931;-56
2022/10/04 12:10:26;;;;;;;;;;;23.20;99.90;;;;;;4193874;28;19975;-56
2022/10/04 12:13:06;;;;;;;;;;;23.50;99.10;;;;;;4194897;28;19997;-57
2022/10/04 12:15:39;;;;;;;;;;;23.30;99.30;;;;;;4195388;28;20284;-56
2022/10/04 12:18:13;;;;;;;;;;;23.20;99.70;;;;;;4196238;28;19971;-56
2022/10/04 12:20:42;;;;;;;;;;;23.20;99.10;;;;;;4198304;28;19950;-56
2022/10/04 12:23:29;;;;;;;;;;;23.10;99.00;;;;;;4197869;28;20528;-56
2022/10/04 12:26:08;;;;;;;;;;;23.00;99.20;;;;;;4193024;28;19930;-56
2022/10/04 12:28:47;;;;;;;;;;;23.20;99.90;;;;;;4197986;28;19931;-56
2022/10/04 12:31:22;;;;;;;;;;;23.10;99.90;;;;;;4198233;28;20272;-56
2022/10/04 12:33:43;;;;;;;;;;;23.10;99.90;;;;;;4196499;28;19951;-56
2022/10/04 12:36:23;;;;;;;;;;;23.50;99.90;;;;;;4197288;28;20370;-57
2022/10/04 12:38:48;;;;;;;;;;;23.50;99.90;;;;;;4192077;28;19931;-56
2022/10/04 12:41:12;;;;;;;;;;;23.80;99.90;;;;;;4184835;28;19932;-57
2022/10/04 12:43:55;;;;;;;;;;;23.60;99.90;;;;;;4186313;28;20731;-56
2022/10/04 12:46:25;;;;;;;;;;;23.30;99.50;;;;;;4180598;28;20621;-56
2022/10/04 12:48:49;;;;;;;;;;;23.20;99.90;;;;;;4188843;28;20469;-57
2022/10/04 12:51:42;;;;;;;;;;;23.50;99.90;;;;;;4192828;28;20008;-57
2022/10/04 12:54:16;;;;;;;;;;;23.90;99.90;;;;;;4187416;28;19939;-57
2022/10/04 12:56:46;;;;;;;;;;;23.90;98.70;;;;;;4181443;28;20044;-56
2022/10/04 12:59:14;;;;;;;;;;;23.90;98.40;;;;;;4182686;28;19932;-56
2022/10/04 13:01:53;;;;;;;;;;;24.20;98.80;;;;;;4196129;28;19974;-56
2022/10/04 13:04:28;;;;;;;;;;;24.00;98.60;;;;;;4183064;28;19935;-56
2022/10/04 13:06:48;;;;;;;;;;;24.00;99.40;;;;;;4192711;28;19932;-57
2022/10/04 13:09:09;;;;;;;;;;;23.90;98.10;;;;;;4196966;28;19970;-57
2022/10/04 13:11:35;;;;;;;;;;;24.00;98.90;;;;;;4197542;28;20019;-57
2022/10/04 13:14:14;;;;;;;;;;;24.20;98.40;;;;;;4191163;28;19975;-56
2022/10/04 13:16:54;;;;;;;;;;;24.10;97.90;;;;;;4180490;28;19932;-57
2022/10/04 13:19:34;;;;;;;;;;;23.90;98.80;;;;;;4180650;28;19951;-56
2022/10/04 13:22:07;;;;;;;;;;;24.40;98.00;;;;;;4180781;28;19983;-56
2022/10/04 13:24:53;;;;;;;;;;;24.60;97.80;;;;;;4179961;28;19971;-57
2022/10/04 13:27:15;;;;;;;;;;;24.80;98.20;;;;;;4179947;28;20372;-57
2022/10/04 13:29:45;;;;;;;;;;;24.80;96.90;;;;;;4181341;28;19967;-57
2022/10/04 13:32:24;;;;;;;;;;;24.80;99.40;;;;;;4197047;28;19935;-57
2022/10/04 13:34:59;;;;;;;;;;;24.50;98.30;;;;;;4197197;28;19934;-57
2022/10/04 13:37:32;;;;;;;;;;;24.40;98.60;;;;;;4196792;28;20361;-57
2022/10/04 13:40:10;;;;;;;;;;;24.20;97.70;;;;;;4197010;28;20326;-56
2022/10/04 13:42:31;;;;;;;;;;;23.70;98.30;;;;;;4196985;28;20372;-56
2022/10/04 13:45:01;;;;;;;;;;;23.70;97.50;;;;;;4197131;28;19935;-57
2022/10/04 13:47:28;;;;;;;;;;;24.10;99.60;;;;;;4197006;28;19935;-57
2022/10/04 13:49:48;;;;;;;;;;;24.20;98.10;;;;;;4196811;28;20019;-57
2022/10/04 13:58:11;;;;;;;;;;;23.80;97.60;;;;;;4196331;28;19977;-57
2022/10/04 14:00:43;;;;;;;;;;;23.60;97.40;;;;;;4196806;28;19994;-56
2022/10/04 14:03:03;;;;;;;;;;;23.50;98.50;;;;;;4196546;28;19931;-56
2022/10/04 14:05:27;;;;;;;;;;;23.60;98.10;;;;;;4196482;28;19935;-57
2022/10/04 14:08:07;;;;;;;;;;;23.30;97.80;;;;;;4196529;28;19974;-57
2022/10/04 14:10:42;;;;;;;;;;;23.50;98.50;;;;;;4196702;28;20449;-56
2022/10/04 14:13:23;;;;;;;;;;;23.40;98.10;;;;;;4196213;28;20352;-56
2022/10/04 14:15:47;;;;;;;;;;;23.70;98.50;;;;;;4196352;28;19931;-56
2022/10/04 14:18:32;;;;;;;;;;;23.70;98.90;;;;;;4196348;28;20348;-57
2022/10/04 14:21:11;;;;;;;;;;;23.70;98.60;;;;;;4196231;28;19931;-56
2022/10/04 14:23:57;;;;;;;;;;;23.60;98.20;;;;;;4196298;28;20012;-56
2022/10/04 14:26:36;;;;;;;;;;;23.30;98.10;;;;;;4195830;28;19931;-56
2022/10/04 14:29:09;;;;;;;;;;;23.30;99.00;;;;;;4196133;28;19931;-56
2022/10/04 14:31:41;;;;;;;;;;;23.20;97.90;;;;;;4196510;28;19930;-56
2022/10/04 14:34:01;;;;;;;;;;;23.10;98.30;;;;;;4195888;28;20024;-56
2022/10/04 14:36:22;;;;;;;;;;;23.00;98.20;;;;;;4196338;28;19993;-56
2022/10/04 14:39:03;;;;;;;;;;;23.20;96.80;;;;;;4196285;28;19931;-56
2022/10/04 14:41:44;;;;;;;;;;;23.20;97.60;;;;;;4196157;28;20006;-56
2022/10/04 14:44:09;;;;;;;;;;;23.20;98.50;;;;;;4196082;28;20578;-56